Time;durP1;ratioP1;P1;durP2;ratioP2;P2;SDS_P1;SDS_P2;PMS_P1;PMS_P2;Temp;Humidity;BMP_temperature;BMP_pressure;BME280_temperature;BME280_humidity;BME280_pressure;Samples;Min_cycle;Max_cycle;Signal;HPM_P1;HPM_P2
2024/02/23 00:02:05;;;;;;;;;;;;;;;-0.54;100.00;101182.94;104656;1266;59637;-54
2024/02/23 00:04:33;;;;;;;;;;;;;;;-0.54;100.00;101182.63;104626;1270;59396;-56
2024/02/23 00:07:02;;;;;;;;;;;;;;;-0.58;100.00;101185.25;104945;1263;72262;-55
2024/02/23 00:09:30;;;;;;;;;;;;;;;-0.59;100.00;101189.41;105064;1259;66974;-55
2024/02/23 00:11:58;;;;;;;;;;;;;;;-0.59;100.00;101187.39;105129;1259;72608;-55
2024/02/23 00:14:26;;;;;;;;;;;;;;;-0.62;100.00;101184.64;105212;1262;224321;-61
2024/02/23 00:16:53;;;;;;;;;;;;;;;-0.63;100.00;101185.54;105529;1252;59846;-55
2024/02/23 00:19:22;;;;;;;;;;;;;;;-0.64;100.00;101183.71;105594;1254;72320;-54
2024/02/23 00:21:51;;;;;;;;;;;;;;;-0.66;100.00;101187.43;105569;1257;65665;-55
2024/02/23 00:24:20;;;;;;;;;;;;;;;-0.68;100.00;101184.97;105823;1254;72677;-60
2024/02/23 00:26:48;;;;;;;;;;;;;;;-0.67;100.00;101189.17;105449;1257;59848;-54
2024/02/23 00:29:16;;;;;;;;;;;;;;;-0.64;100.00;101188.03;105406;1253;59886;-54
2024/02/23 00:31:47;;;;;;;;;;;;;;;-0.65;100.00;101187.69;105497;1257;73650;-56
2024/02/23 00:34:15;;;;;;;;;;;;;;;-0.66;100.00;101185.88;105828;1253;66996;-60
2024/02/23 00:36:44;;;;;;;;;;;;;;;-0.66;100.00;101184.55;105623;1253;72688;-55
2024/02/23 00:39:12;;;;;;;;;;;;;;;-0.69;100.00;101183.51;105708;1258;60895;-54
2024/02/23 00:41:40;;;;;;;;;;;;;;;-0.69;100.00;101183.14;105582;1258;59640;-56
2024/02/23 00:44:07;;;;;;;;;;;;;;;-0.69;100.00;101184.35;105653;1256;73083;-54
2024/02/23 00:46:35;;;;;;;;;;;;;;;-0.70;100.00;101183.38;105651;1257;65774;-55
2024/02/23 00:49:03;;;;;;;;;;;;;;;-0.70;100.00;101183.73;105764;1259;71429;-55
2024/02/23 00:51:31;;;;;;;;;;;;;;;-0.71;100.00;101183.64;105498;1253;59670;-59
2024/02/23 00:53:59;;;;;;;;;;;;;;;-0.72;100.00;101183.17;105638;1253;59778;-55
2024/02/23 00:56:27;;;;;;;;;;;;;;;-0.73;100.00;101181.48;105593;1253;71787;-56
2024/02/23 00:59:07;;;;;;;;;;;;;;;-0.78;100.00;101182.61;106126;1256;66921;-54
2024/02/23 01:01:35;;;;;;;;;;;;;;;-0.79;100.00;101185.58;105664;1253;72763;-54
2024/02/23 01:04:02;;;;;;;;;;;;;;;-0.77;100.00;101190.26;105479;1253;59788;-60
2024/02/23 01:06:30;;;;;;;;;;;;;;;-0.75;100.00;101191.52;105265;1257;59624;-55
2024/02/23 01:08:58;;;;;;;;;;;;;;;-0.73;100.00;101189.88;105479;1253;72948;-55
2024/02/23 01:11:25;;;;;;;;;;;;;;;-0.70;100.00;101193.84;105258;1253;65621;-55
2024/02/23 01:13:53;;;;;;;;;;;;;;;-0.69;100.00;101194.92;105759;1254;71427;-54
2024/02/23 01:16:21;;;;;;;;;;;;;;;-0.66;100.00;101196.48;105789;1253;59694;-61
2024/02/23 01:18:48;;;;;;;;;;;;;;;-0.65;100.00;101198.48;105554;1253;59864;-54
2024/02/23 01:21:16;;;;;;;;;;;;;;;-0.67;100.00;101202.20;105495;1253;71914;-56
2024/02/23 01:23:44;;;;;;;;;;;;;;;-0.70;100.00;101204.04;105533;1253;66903;-55
2024/02/23 01:26:13;;;;;;;;;;;;;;;-0.74;100.00;101207.67;105912;1253;72702;-54
2024/02/23 01:28:40;;;;;;;;;;;;;;;-0.75;100.00;101213.90;105614;1259;59620;-55
2024/02/23 01:31:10;;;;;;;;;;;;;;;-0.77;100.00;101215.98;105597;1253;59916;-56
2024/02/23 01:33:38;;;;;;;;;;;;;;;-0.77;100.00;101216.36;105509;1258;73110;-55
2024/02/23 01:36:06;;;;;;;;;;;;;;;-0.77;100.00;101218.77;105488;1257;67049;-54
2024/02/23 01:38:34;;;;;;;;;;;;;;;-0.77;100.00;101225.06;105861;1254;72763;-60
2024/02/23 01:41:02;;;;;;;;;;;;;;;-0.77;100.00;101223.17;105508;1253;60931;-55
2024/02/23 01:43:30;;;;;;;;;;;;;;;-0.77;100.00;101226.09;105485;1253;60077;-54
2024/02/23 01:45:57;;;;;;;;;;;;;;;-0.75;100.00;101227.04;105509;1253;71852;-54
2024/02/23 01:48:25;;;;;;;;;;;;;;;-0.75;100.00;101224.81;105522;1257;67126;-56
2024/02/23 01:50:53;;;;;;;;;;;;;;;-0.76;100.00;101228.92;105626;1255;71381;-61
2024/02/23 01:53:21;;;;;;;;;;;;;;;-0.76;100.00;101231.35;105520;1258;59711;-54
2024/02/23 01:55:49;;;;;;;;;;;;;;;-0.76;100.00;101233.21;105465;1253;59900;-55
2024/02/23 02:05:40;;;;;;;;;;;;;;;-0.66;100.00;101228.05;102437;1289;599785;-56
2024/02/23 02:08:08;;;;;;;;;;;;;;;-0.65;100.00;101232.61;104653;1267;63115;-54
2024/02/23 02:10:35;;;;;;;;;;;;;;;-0.62;100.00;101235.69;104819;1264;59838;-54
2024/02/23 02:13:06;;;;;;;;;;;;;;;-0.61;100.00;101234.40;104888;1265;72774;-58
2024/02/23 02:15:34;;;;;;;;;;;;;;;-0.59;100.00;101239.09;104646;1269;66919;-54
2024/02/23 02:18:01;;;;;;;;;;;;;;;-0.58;100.00;101239.38;104835;1269;71721;-53
2024/02/23 02:20:30;;;;;;;;;;;;;;;-0.58;100.00;101237.34;104533;1267;221858;-54
2024/02/23 02:22:58;;;;;;;;;;;;;;;-0.57;100.00;101243.23;107163;1264;60258;-54
2024/02/23 02:25:25;;;;;;;;;;;;;;;-0.58;100.00;101241.23;104508;1263;72277;-54
2024/02/23 02:27:53;;;;;;;;;;;;;;;-0.58;100.00;101237.16;104888;1268;65794;-54
2024/02/23 02:30:20;;;;;;;;;;;;;;;-0.60;100.00;101236.23;105341;1257;71482;-53
2024/02/23 02:32:48;;;;;;;;;;;;;;;-0.62;100.00;101234.85;105264;1257;59805;-54
2024/02/23 02:35:16;;;;;;;;;;;;;;;-0.64;100.00;101233.92;105973;1257;59612;-60
2024/02/23 02:37:44;;;;;;;;;;;;;;;-0.65;100.00;101236.00;104997;1256;73558;-54
2024/02/23 02:40:11;;;;;;;;;;;;;;;-0.65;100.00;101233.95;105337;1258;65702;-54
2024/02/23 02:42:39;;;;;;;;;;;;;;;-0.63;100.00;101235.09;105276;1260;72361;-54
2024/02/23 02:45:07;;;;;;;;;;;;;;;-0.63;100.00;101233.36;105451;1260;59745;-54
2024/02/23 02:47:36;;;;;;;;;;;;;;;-0.64;100.00;101238.17;105462;1256;59873;-55
2024/02/23 02:50:06;;;;;;;;;;;;;;;-0.65;100.00;101238.23;105550;1256;73068;-56
2024/02/23 02:52:34;;;;;;;;;;;;;;;-0.66;100.00;101243.94;105416;1260;67053;-56
2024/02/23 02:55:01;;;;;;;;;;;;;;;-0.65;100.00;101251.91;105491;1260;72674;-55
2024/02/23 02:57:29;;;;;;;;;;;;;;;-0.66;100.00;101251.95;105356;1260;59532;-55
2024/02/23 02:59:57;;;;;;;;;;;;;;;-0.67;100.00;101257.16;105491;1256;59620;-56
2024/02/23 03:02:25;;;;;;;;;;;;;;;-0.67;100.00;101255.98;105701;1251;71797;-54
2024/02/23 03:04:54;;;;;;;;;;;;;;;-0.66;100.00;101264.91;105803;1257;66911;-54
2024/02/23 03:07:22;;;;;;;;;;;;;;;-0.63;100.00;101263.57;105801;1256;72740;-54
2024/02/23 03:09:50;;;;;;;;;;;;;;;-0.60;100.00;101268.37;105638;1256;59711;-54
2024/02/23 03:12:18;;;;;;;;;;;;;;;-0.59;100.00;101265.25;105724;1251;59583;-54
2024/02/23 03:14:46;;;;;;;;;;;;;;;-0.60;100.00;101264.08;105698;1253;73117;-54
2024/02/23 03:17:13;;;;;;;;;;;;;;;-0.58;100.00;101270.45;105383;1256;65979;-54
2024/02/23 03:19:41;;;;;;;;;;;;;;;-0.58;100.00;101269.39;105714;1257;71449;-54
2024/02/23 03:22:09;;;;;;;;;;;;;;;-0.58;100.00;101266.36;105690;1254;60549;-55
2024/02/23 03:24:37;;;;;;;;;;;;;;;-0.59;100.00;101266.58;105509;1254;59745;-55
2024/02/23 03:27:05;;;;;;;;;;;;;;;-0.59;100.00;101260.41;105658;1257;73068;-55
2024/02/23 03:29:33;;;;;;;;;;;;;;;-0.59;100.00;101255.83;105697;1257;66866;-54
2024/02/23 03:32:01;;;;;;;;;;;;;;;-0.58;100.00;101259.66;105751;1256;72653;-54
2024/02/23 03:41:53;;;;;;;;;;;;;;;-0.45;100.00;101266.81;102605;1290;599412;-54
2024/02/23 03:44:21;;;;;;;;;;;;;;;-0.44;100.00;101270.52;104802;1267;59324;-54
2024/02/23 03:46:49;;;;;;;;;;;;;;;-0.43;100.00;101272.82;104780;1266;59187;-55
2024/02/23 03:49:18;;;;;;;;;;;;;;;-0.42;100.00;101272.29;104793;1267;73075;-58
2024/02/23 03:51:45;;;;;;;;;;;;;;;-0.44;100.00;101275.30;104715;1267;65727;-55
2024/02/23 03:54:13;;;;;;;;;;;;;;;-0.45;100.00;101276.20;104715;1269;72692;-56
2024/02/23 03:56:41;;;;;;;;;;;;;;;-0.46;100.00;101276.59;104612;1264;233910;-54
2024/02/23 03:59:09;;;;;;;;;;;;;;;-0.48;100.00;101273.98;104883;1264;59791;-54
2024/02/23 04:01:38;;;;;;;;;;;;;;;-0.48;100.00;101276.05;105192;1262;72274;-56
2024/02/23 04:04:05;;;;;;;;;;;;;;;-0.49;100.00;101274.23;105164;1257;66070;-54
2024/02/23 04:06:33;;;;;;;;;;;;;;;-0.52;100.00;101275.41;105269;1257;71743;-54
2024/02/23 04:09:01;;;;;;;;;;;;;;;-0.54;100.00;101282.33;105589;1257;59714;-54
2024/02/23 04:11:29;;;;;;;;;;;;;;;-0.55;100.00;101281.53;105777;1256;59691;-61
2024/02/23 04:13:57;;;;;;;;;;;;;;;-0.56;100.00;101280.04;105240;1256;73212;-58
2024/02/23 04:16:24;;;;;;;;;;;;;;;-0.56;100.00;101284.48;105352;1256;66968;-55
2024/02/23 04:18:53;;;;;;;;;;;;;;;-0.53;100.00;101285.55;105983;1256;72697;-54
2024/02/23 04:21:20;;;;;;;;;;;;;;;-0.50;100.00;101282.42;105730;1254;59580;-55
2024/02/23 04:23:48;;;;;;;;;;;;;;;-0.47;100.00;101284.20;105810;1256;59937;-54
2024/02/23 04:26:15;;;;;;;;;;;;;;;-0.47;100.00;101287.25;105747;1251;71784;-54
2024/02/23 04:28:43;;;;;;;;;;;;;;;-0.46;100.00;101284.79;105840;1256;65699;-54
2024/02/23 04:31:11;;;;;;;;;;;;;;;-0.44;100.00;101284.16;105864;1257;73298;-55
2024/02/23 04:33:39;;;;;;;;;;;;;;;-0.43;100.00;101290.10;105590;1257;59707;-60
2024/02/23 04:36:07;;;;;;;;;;;;;;;-0.44;100.00;101292.20;105610;1250;59560;-54
2024/02/23 04:38:35;;;;;;;;;;;;;;;-0.44;100.00;101296.80;105830;1257;71796;-53
2024/02/23 04:41:04;;;;;;;;;;;;;;;-0.42;100.00;101294.11;105871;1251;65615;-56
2024/02/23 04:43:32;;;;;;;;;;;;;;;-0.40;100.00;101295.73;105772;1251;71486;-60
2024/02/23 04:45:59;;;;;;;;;;;;;;;-0.39;100.00;101293.07;105509;1257;60834;-53
2024/02/23 04:48:27;;;;;;;;;;;;;;;-0.37;100.00;101290.45;105697;1257;59533;-54
2024/02/23 04:50:54;;;;;;;;;;;;;;;-0.37;100.00;101296.73;105820;1251;73564;-54
2024/02/23 04:53:22;;;;;;;;;;;;;;;-0.35;100.00;101302.46;105735;1256;66110;-55
2024/02/23 04:55:50;;;;;;;;;;;;;;;-0.34;100.00;101307.18;105779;1257;73400;-53
2024/02/23 04:58:18;;;;;;;;;;;;;;;-0.33;100.00;101311.17;105815;1256;59772;-53
2024/02/23 05:00:45;;;;;;;;;;;;;;;-0.31;100.00;101317.41;105905;1256;59829;-54
2024/02/23 05:03:15;;;;;;;;;;;;;;;-0.29;100.00;101323.30;105796;1251;73026;-53
2024/02/23 05:05:43;;;;;;;;;;;;;;;-0.30;100.00;101325.88;105875;1257;66894;-55
2024/02/23 05:08:10;;;;;;;;;;;;;;;-0.28;100.00;101326.94;105511;1251;72723;-55
2024/02/23 05:10:38;;;;;;;;;;;;;;;-0.24;100.00;101330.87;105894;1256;59714;-55
2024/02/23 05:13:06;;;;;;;;;;;;;;;-0.22;100.00;101333.35;105850;1251;59796;-56
2024/02/23 05:15:33;;;;;;;;;;;;;;;-0.21;100.00;101327.27;105945;1250;71821;-55
2024/02/23 05:18:01;;;;;;;;;;;;;;;-0.18;100.00;101331.23;106010;1256;65682;-54
2024/02/23 05:20:29;;;;;;;;;;;;;;;-0.17;100.00;101335.77;105942;1256;72771;-56
2024/02/23 05:22:58;;;;;;;;;;;;;;;-0.17;100.00;101336.59;105977;1252;59959;-56
2024/02/23 05:25:25;;;;;;;;;;;;;;;-0.16;100.00;101339.09;105933;1250;59852;-54
2024/02/23 05:27:53;;;;;;;;;;;;;;;-0.14;100.00;101335.77;106140;1256;71823;-59
2024/02/23 05:30:21;;;;;;;;;;;;;;;-0.13;100.00;101336.55;105630;1257;64988;-56
2024/02/23 05:32:48;;;;;;;;;;;;;;;-0.11;100.00;101336.45;105847;1257;71455;-54
2024/02/23 05:35:16;;;;;;;;;;;;;;;-0.10;100.00;101340.46;105937;1251;60022;-55
2024/02/23 05:37:44;;;;;;;;;;;;;;;-0.08;100.00;101337.78;105815;1251;59546;-56
2024/02/23 05:40:12;;;;;;;;;;;;;;;-0.03;100.00;101334.59;106060;1256;72387;-56
2024/02/23 05:42:39;;;;;;;;;;;;;;;0.00;100.00;101331.70;105875;1251;67513;-55
2024/02/23 05:45:08;;;;;;;;;;;;;;;0.05;100.00;101332.27;105764;1254;73048;-56
2024/02/23 05:47:36;;;;;;;;;;;;;;;0.09;100.00;101333.23;105727;1257;59627;-55
2024/02/23 05:50:05;;;;;;;;;;;;;;;0.12;100.00;101336.31;105833;1256;59592;-61
2024/02/23 05:52:32;;;;;;;;;;;;;;;0.11;100.00;101334.80;105636;1256;73064;-55
2024/02/23 05:55:00;;;;;;;;;;;;;;;0.12;100.00;101332.90;105710;1256;67047;-54
2024/02/23 05:57:29;;;;;;;;;;;;;;;0.15;100.00;101335.45;105803;1251;72871;-56
2024/02/23 05:59:56;;;;;;;;;;;;;;;0.18;100.00;101336.61;105909;1257;59655;-56
2024/02/23 06:02:24;;;;;;;;;;;;;;;0.21;100.00;101341.27;105937;1257;59530;-54
2024/02/23 06:04:52;;;;;;;;;;;;;;;0.22;100.00;101346.10;105742;1256;73051;-55
2024/02/23 06:07:26;;;;;;;;;;;;;;;0.23;100.00;101342.67;105797;1251;65839;-54
2024/02/23 06:09:57;;;;;;;;;;;;;;;0.20;100.00;101343.87;105813;1252;72829;-54
2024/02/23 06:12:25;;;;;;;;;;;;;;;0.17;100.00;101341.45;105802;1257;60971;-55
2024/02/23 06:14:52;;;;;;;;;;;;;;;0.16;100.00;101343.23;105502;1251;59662;-53
2024/02/23 06:24:39;;;;;;;;;;;;;;;0.32;100.00;101350.02;102433;1292;598770;-55
2024/02/23 06:27:08;;;;;;;;;;;;;;;0.33;100.00;101355.57;104882;1270;59235;-55
2024/02/23 06:29:36;;;;;;;;;;;;;;;0.33;100.00;101356.42;104529;1271;59278;-54
2024/02/23 06:32:04;;;;;;;;;;;;;;;0.35;100.00;101358.03;104807;1270;72812;-56
2024/02/23 06:34:31;;;;;;;;;;;;;;;0.35;100.00;101355.98;104739;1271;67102;-61
2024/02/23 06:36:59;;;;;;;;;;;;;;;0.37;100.00;101359.10;104464;1270;74552;-55
2024/02/23 06:39:27;;;;;;;;;;;;;;;0.40;100.00;101363.91;104809;1267;200822;-54
2024/02/23 06:41:55;;;;;;;;;;;;;;;0.41;100.00;101366.71;104825;1266;62344;-54
2024/02/23 06:44:22;;;;;;;;;;;;;;;0.40;100.00;101359.27;104983;1266;71279;-55
2024/02/23 06:46:50;;;;;;;;;;;;;;;0.36;100.00;101359.86;104884;1266;67567;-56
2024/02/23 06:49:18;;;;;;;;;;;;;;;0.32;100.00;101358.59;104858;1265;72715;-55
2024/02/23 06:51:46;;;;;;;;;;;;;;;0.31;100.00;101361.88;104909;1267;59788;-53
2024/02/23 06:54:13;;;;;;;;;;;;;;;0.30;100.00;101362.27;104875;1270;59712;-54
2024/02/23 06:56:41;;;;;;;;;;;;;;;0.28;100.00;101360.33;105485;1258;72307;-54
2024/02/23 06:59:09;;;;;;;;;;;;;;;0.28;100.00;101361.91;105237;1263;67733;-54
2024/02/23 07:01:37;;;;;;;;;;;;;;;0.28;100.00;101363.05;105282;1258;75333;-54
2024/02/23 07:04:08;;;;;;;;;;;;;;;0.31;100.00;101368.22;105156;1259;63506;-55
2024/02/23 07:06:37;;;;;;;;;;;;;;;0.40;100.00;101367.68;105420;1258;62330;-55
2024/02/23 07:09:05;;;;;;;;;;;;;;;0.53;100.00;101366.07;105201;1262;75892;-54
2024/02/23 07:11:32;;;;;;;;;;;;;;;0.63;100.00;101356.54;105358;1258;68354;-54
2024/02/23 07:14:00;;;;;;;;;;;;;;;0.73;100.00;101356.80;105221;1263;73995;-55
2024/02/23 07:16:28;;;;;;;;;;;;;;;0.85;100.00;101362.09;105371;1259;62804;-56
2024/02/23 07:18:56;;;;;;;;;;;;;;;0.91;100.00;101363.91;105100;1260;62751;-54
2024/02/23 07:21:25;;;;;;;;;;;;;;;0.91;100.00;101362.59;105330;1263;73111;-55
2024/02/23 07:23:53;;;;;;;;;;;;;;;0.91;100.00;101360.17;105493;1258;65652;-55
2024/02/23 07:26:22;;;;;;;;;;;;;;;0.94;100.00;101361.70;105208;1259;74485;-55
2024/02/23 07:28:49;;;;;;;;;;;;;;;0.99;100.00;101361.91;105409;1263;60882;-55
2024/02/23 07:31:17;;;;;;;;;;;;;;;0.98;100.00;101367.23;105342;1259;59562;-56
2024/02/23 07:33:45;;;;;;;;;;;;;;;0.95;100.00;101369.34;105604;1255;73086;-55
2024/02/23 07:36:16;;;;;;;;;;;;;;;0.95;100.00;101373.30;105635;1254;68427;-54
2024/02/23 07:38:44;;;;;;;;;;;;;;;0.95;100.00;101376.89;105757;1258;73100;-56
2024/02/23 07:41:17;;;;;;;;;;;;;;;0.90;100.00;101376.98;105536;1259;60871;-54
2024/02/23 07:43:45;;;;;;;;;;;;;;;0.85;100.00;101367.58;105832;1253;62237;-56
2024/02/23 07:46:13;;;;;;;;;;;;;;;0.86;100.00;101371.30;105553;1258;77127;-53
2024/02/23 07:48:41;;;;;;;;;;;;;;;0.89;100.00;101371.55;105687;1253;69562;-57
2024/02/23 07:51:09;;;;;;;;;;;;;;;0.92;100.00;101370.54;105624;1258;75613;-54
2024/02/23 07:53:37;;;;;;;;;;;;;;;0.96;100.00;101365.34;105601;1258;62087;-54
2024/02/23 07:56:07;;;;;;;;;;;;;;;0.97;100.00;101363.92;105696;1259;61548;-54
2024/02/23 07:58:34;;;;;;;;;;;;;;;0.98;100.00;101365.75;105621;1255;75147;-55
2024/02/23 08:01:02;;;;;;;;;;;;;;;1.00;100.00;101366.63;105462;1257;69054;-54
2024/02/23 08:03:30;;;;;;;;;;;;;;;1.01;100.00;101365.55;105688;1253;75378;-54
2024/02/23 08:05:58;;;;;;;;;;;;;;;1.05;100.00;101367.70;105863;1254;63665;-55
2024/02/23 08:08:32;;;;;;;;;;;;;;;1.14;100.00;101367.45;106054;1254;60412;-54
2024/02/23 08:11:02;;;;;;;;;;;;;;;1.28;100.00;101367.49;105570;1258;75015;-53
2024/02/23 08:13:30;;;;;;;;;;;;;;;1.37;100.00;101367.27;105583;1253;68746;-53
2024/02/23 08:15:58;;;;;;;;;;;;;;;1.39;100.00;101369.84;105783;1254;75152;-53
2024/02/23 08:18:26;;;;;;;;;;;;;;;1.43;100.00;101365.67;105595;1258;62304;-54
2024/02/23 08:20:54;;;;;;;;;;;;;;;1.46;100.00;101364.25;105838;1253;62337;-58
2024/02/23 08:23:23;;;;;;;;;;;;;;;1.50;100.00;101358.06;105570;1255;74649;-56
2024/02/23 08:25:53;;;;;;;;;;;;;;;1.53;100.00;101357.81;105899;1255;70396;-53
2024/02/23 08:28:21;;;;;;;;;;;;;;;1.60;100.00;101350.71;105791;1256;75156;-53
2024/02/23 08:30:49;;;;;;;;;;;;;;;1.77;100.00;101345.71;105540;1258;63193;-60
2024/02/23 08:33:17;;;;;;;;;;;;;;;1.93;100.00;101344.65;105514;1257;61559;-53
2024/02/23 08:35:45;;;;;;;;;;;;;;;2.08;100.00;101342.81;105688;1254;76772;-53
2024/02/23 08:38:13;;;;;;;;;;;;;;;2.19;100.00;101343.63;105629;1258;69682;-52
2024/02/23 08:40:42;;;;;;;;;;;;;;;2.18;100.00;101342.32;105615;1254;75287;-54
2024/02/23 08:43:09;;;;;;;;;;;;;;;2.11;100.00;101335.04;105759;1258;61737;-55
2024/02/23 08:45:37;;;;;;;;;;;;;;;2.04;100.00;101336.40;105287;1255;62415;-53
2024/02/23 08:48:06;;;;;;;;;;;;;;;1.98;100.00;101334.73;105306;1254;75073;-53
2024/02/23 08:50:34;;;;;;;;;;;;;;;2.02;100.00;101336.20;105380;1255;68954;-54
2024/02/23 08:53:02;;;;;;;;;;;;;;;2.17;100.00;101341.02;105530;1258;75844;-55
2024/02/23 08:55:31;;;;;;;;;;;;;;;2.39;100.00;101342.11;105454;1258;61784;-53
2024/02/23 08:57:59;;;;;;;;;;;;;;;2.57;100.00;101338.31;105586;1258;61566;-53
2024/02/23 09:00:26;;;;;;;;;;;;;;;2.68;100.00;101334.64;105467;1254;75429;-53
2024/02/23 09:02:54;;;;;;;;;;;;;;;2.69;100.00;101330.80;105689;1254;67385;-53
2024/02/23 09:05:22;;;;;;;;;;;;;;;2.66;100.00;101325.84;105548;1253;74680;-54
2024/02/23 09:07:50;;;;;;;;;;;;;;;2.60;100.00;101326.80;105529;1258;61699;-54
2024/02/23 09:10:18;;;;;;;;;;;;;;;2.56;100.00;101332.06;105713;1253;63272;-54
2024/02/23 09:12:45;;;;;;;;;;;;;;;2.60;100.00;101334.52;105757;1257;74767;-54
2024/02/23 09:15:13;;;;;;;;;;;;;;;2.69;100.00;101338.00;105651;1253;69579;-60
2024/02/23 09:17:41;;;;;;;;;;;;;;;2.73;100.00;101336.05;105481;1255;75148;-53
2024/02/23 09:20:10;;;;;;;;;;;;;;;2.74;100.00;101337.30;105627;1253;62503;-52
2024/02/23 09:22:37;;;;;;;;;;;;;;;2.80;100.00;101336.74;105668;1257;61513;-54
2024/02/23 09:25:06;;;;;;;;;;;;;;;2.82;100.00;101332.83;105670;1257;75757;-54
2024/02/23 09:27:36;;;;;;;;;;;;;;;2.88;100.00;101332.92;105730;1254;68404;-54
2024/02/23 09:30:04;;;;;;;;;;;;;;;2.93;100.00;101330.00;105704;1253;75171;-55
2024/02/23 09:32:32;;;;;;;;;;;;;;;2.94;100.00;101336.74;105658;1257;60621;-56
2024/02/23 09:35:00;;;;;;;;;;;;;;;2.96;100.00;101330.14;105747;1256;63274;-53
2024/02/23 09:37:28;;;;;;;;;;;;;;;3.06;100.00;101328.38;105736;1253;73129;-55
2024/02/23 09:39:55;;;;;;;;;;;;;;;3.28;100.00;101328.54;105590;1255;67898;-54
2024/02/23 09:42:26;;;;;;;;;;;;;;;3.47;100.00;101328.02;105520;1253;74110;-54
2024/02/23 09:44:59;;;;;;;;;;;;;;;3.62;100.00;101323.83;105604;1253;61698;-57
2024/02/23 09:47:27;;;;;;;;;;;;;;;3.68;100.00;101318.29;105441;1257;61551;-53
2024/02/23 09:49:55;;;;;;;;;;;;;;;3.73;100.00;101316.21;105729;1257;76196;-54
2024/02/23 09:52:22;;;;;;;;;;;;;;;3.97;100.00;101313.86;105693;1257;69373;-53
2024/02/23 09:54:50;;;;;;;;;;;;;;;4.23;100.00;101307.29;105680;1259;75433;-54
2024/02/23 09:57:18;;;;;;;;;;;;;;;4.45;100.00;101305.98;105811;1256;59718;-56
2024/02/23 09:59:46;;;;;;;;;;;;;;;4.63;100.00;101301.31;105698;1253;62202;-53
2024/02/23 10:02:14;;;;;;;;;;;;;;;4.87;100.00;101295.85;105818;1253;76400;-53
2024/02/23 10:04:45;;;;;;;;;;;;;;;5.04;100.00;101293.05;105717;1253;68344;-53
2024/02/23 10:07:16;;;;;;;;;;;;;;;5.22;100.00;101286.69;105654;1253;74188;-53
2024/02/23 10:09:44;;;;;;;;;;;;;;;5.38;100.00;101280.90;105749;1254;62167;-53
2024/02/23 10:12:12;;;;;;;;;;;;;;;5.48;100.00;101270.26;105667;1256;61771;-53
2024/02/23 10:14:43;;;;;;;;;;;;;;;5.65;100.00;101269.55;105578;1257;74839;-54
2024/02/23 10:17:11;;;;;;;;;;;;;;;5.80;100.00;101268.34;105570;1257;69197;-59
2024/02/23 10:19:39;;;;;;;;;;;;;;;5.94;100.00;101270.66;105708;1253;74063;-54
2024/02/23 10:22:07;;;;;;;;;;;;;;;6.13;100.00;101269.70;105740;1253;61463;-54
2024/02/23 10:24:36;;;;;;;;;;;;;;;6.50;100.00;101270.23;105655;1253;62914;-54
2024/02/23 10:27:04;;;;;;;;;;;;;;;6.89;100.00;101267.30;105690;1253;74433;-55
2024/02/23 10:29:31;;;;;;;;;;;;;;;7.26;100.00;101259.42;105444;1254;68263;-53
2024/02/23 10:32:00;;;;;;;;;;;;;;;7.28;100.00;101262.68;105777;1257;74679;-55
2024/02/23 10:34:28;;;;;;;;;;;;;;;7.12;100.00;101258.61;105885;1258;61910;-53
2024/02/23 10:36:56;;;;;;;;;;;;;;;6.95;100.00;101256.41;105810;1253;63129;-55
2024/02/23 10:39:24;;;;;;;;;;;;;;;6.74;100.00;101255.31;105871;1253;75125;-59
2024/02/23 10:41:56;;;;;;;;;;;;;;;6.58;100.00;101251.61;105737;1253;69209;-59
2024/02/23 10:44:24;;;;;;;;;;;;;;;6.29;100.00;101255.61;105735;1253;74551;-53
2024/02/23 10:46:52;;;;;;;;;;;;;;;5.98;100.00;101258.25;105655;1253;62172;-55
2024/02/23 10:49:21;;;;;;;;;;;;;;;5.70;100.00;101252.05;105644;1253;62271;-55
2024/02/23 10:51:50;;;;;;;;;;;;;;;5.56;100.00;101248.92;105573;1253;76229;-55
2024/02/23 10:54:20;;;;;;;;;;;;;;;5.54;100.00;101246.86;105696;1257;69434;-53
2024/02/23 10:56:48;;;;;;;;;;;;;;;5.54;100.00;101250.48;105572;1253;73730;-53
2024/02/23 10:59:18;;;;;;;;;;;;;;;5.52;100.00;101248.52;105494;1253;60814;-53
2024/02/23 11:01:49;;;;;;;;;;;;;;;5.61;100.00;101250.58;105766;1257;61401;-57
2024/02/23 11:04:17;;;;;;;;;;;;;;;5.82;100.00;101249.88;105749;1257;76607;-55
2024/02/23 11:06:49;;;;;;;;;;;;;;;6.06;100.00;101244.98;105726;1253;69336;-56
2024/02/23 11:09:17;;;;;;;;;;;;;;;6.40;100.00;101241.56;105768;1258;75264;-54
2024/02/23 11:11:57;;;;;;;;;;;;;;;6.72;100.00;101237.80;105741;1253;61980;-58
2024/02/23 11:14:36;;;;;;;;;;;;;;;6.95;100.00;101240.06;105653;1254;62327;-55
2024/02/23 11:17:04;;;;;;;;;;;;;;;7.00;100.00;101243.95;105610;1256;76316;-55
2024/02/23 11:19:34;;;;;;;;;;;;;;;6.90;100.00;101245.00;105967;1253;69601;-54
2024/02/23 11:22:02;;;;;;;;;;;;;;;6.74;100.00;101247.28;105556;1253;74029;-54
2024/02/23 11:24:31;;;;;;;;;;;;;;;6.52;100.00;101245.83;105730;1257;62028;-55
2024/02/23 11:27:00;;;;;;;;;;;;;;;6.39;100.00;101245.05;105743;1257;61146;-56
2024/02/23 11:29:29;;;;;;;;;;;;;;;6.25;100.00;101248.33;105527;1253;76374;-57
2024/02/23 11:32:01;;;;;;;;;;;;;;;6.06;100.00;101247.17;105632;1257;70317;-56
2024/02/23 11:34:29;;;;;;;;;;;;;;;5.90;100.00;101249.69;105645;1257;74057;-55
2024/02/23 11:36:59;;;;;;;;;;;;;;;5.85;100.00;101251.66;105689;1257;61931;-56
2024/02/23 11:39:27;;;;;;;;;;;;;;;5.83;100.00;101252.35;105569;1256;60931;-55
2024/02/23 11:41:56;;;;;;;;;;;;;;;5.85;100.00;101255.82;105179;1253;76421;-56
2024/02/23 11:44:24;;;;;;;;;;;;;;;5.96;100.00;101251.87;105412;1253;68617;-55
2024/02/23 11:46:51;;;;;;;;;;;;;;;6.11;100.00;101252.65;105497;1257;74093;-54
2024/02/23 11:49:20;;;;;;;;;;;;;;;6.20;100.00;101252.45;105604;1254;60293;-60
2024/02/23 11:51:48;;;;;;;;;;;;;;;6.27;100.00;101249.56;105325;1258;61149;-55
2024/02/23 11:54:16;;;;;;;;;;;;;;;6.36;100.00;101254.29;105450;1258;75147;-55
2024/02/23 11:56:44;;;;;;;;;;;;;;;6.42;100.00;101256.91;105472;1253;69299;-54
2024/02/23 11:59:12;;;;;;;;;;;;;;;6.47;100.00;101258.93;105378;1254;74099;-55
2024/02/23 12:01:40;;;;;;;;;;;;;;;6.56;100.00;101253.77;105367;1259;62518;-54
2024/02/23 12:04:08;;;;;;;;;;;;;;;6.75;100.00;101259.20;105388;1258;61273;-54
2024/02/23 12:06:35;;;;;;;;;;;;;;;6.91;100.00;101260.60;105397;1253;74432;-58
2024/02/23 12:09:04;;;;;;;;;;;;;;;7.00;100.00;101258.63;105298;1253;71399;-55
2024/02/23 12:11:32;;;;;;;;;;;;;;;7.05;100.00;101258.55;105335;1257;73558;-55
2024/02/23 12:14:02;;;;;;;;;;;;;;;7.16;100.00;101260.11;105291;1255;61043;-56
2024/02/23 12:16:30;;;;;;;;;;;;;;;7.33;100.00;101256.66;105270;1256;61612;-54
2024/02/23 12:18:57;;;;;;;;;;;;;;;7.47;100.00;101252.65;105359;1253;76269;-57
2024/02/23 12:21:25;;;;;;;;;;;;;;;7.56;100.00;101254.25;105424;1258;69691;-55
2024/02/23 12:23:53;;;;;;;;;;;;;;;7.65;100.00;101254.60;105431;1256;74556;-59
2024/02/23 12:26:21;;;;;;;;;;;;;;;7.66;100.00;101253.45;105474;1258;61032;-56
2024/02/23 12:28:48;;;;;;;;;;;;;;;7.65;100.00;101256.29;105437;1253;63343;-54
2024/02/23 12:31:16;;;;;;;;;;;;;;;7.63;100.00;101254.71;105335;1253;76013;-54
2024/02/23 12:33:47;;;;;;;;;;;;;;;7.62;100.00;101254.98;105339;1258;71307;-60
2024/02/23 12:36:16;;;;;;;;;;;;;;;7.63;100.00;101252.69;105223;1253;74143;-54
2024/02/23 12:38:44;;;;;;;;;;;;;;;7.56;100.00;101257.75;105356;1258;61093;-54
2024/02/23 12:41:11;;;;;;;;;;;;;;;7.58;100.00;101258.80;105407;1258;61251;-55
2024/02/23 12:43:39;;;;;;;;;;;;;;;7.68;100.00;101253.55;105407;1253;75575;-60
2024/02/23 12:46:12;;;;;;;;;;;;;;;7.84;100.00;101258.81;105374;1258;68677;-55
2024/02/23 12:48:40;;;;;;;;;;;;;;;7.94;100.00;101256.36;105393;1256;74237;-56
2024/02/23 12:51:08;;;;;;;;;;;;;;;8.06;100.00;101255.46;105319;1258;60759;-55